sensor_id;sensor_type;location;lat;lon;timestamp;P1;durP1;ratioP1;P2;durP2;ratioP2
38972;SDS011;25333;50.762;4.470;2022-09-20T00:01:18;2.30;;;0.50;;
38972;SDS011;25333;50.762;4.470;2022-09-20T00:03:46;3.30;;;0.88;;
38972;SDS011;25333;50.762;4.470;2022-09-20T00:06:14;2.60;;;0.75;;
38972;SDS011;25333;50.762;4.470;2022-09-20T00:08:42;1.40;;;0.70;;
38972;SDS011;25333;50.762;4.470;2022-09-20T00:11:12;6.50;;;1.00;;
38972;SDS011;25333;50.762;4.470;2022-09-20T00:13:40;2.45;;;0.70;;
38972;SDS011;25333;50.762;4.470;2022-09-20T00:16:08;2.22;;;0.55;;
38972;SDS011;25333;50.762;4.470;2022-09-20T00:18:35;2.35;;;0.60;;
38972;SDS011;25333;50.762;4.470;2022-09-20T00:21:02;1.70;;;0.57;;
38972;SDS011;25333;50.762;4.470;2022-09-20T00:23:28;3.65;;;0.85;;
38972;SDS011;25333;50.762;4.470;2022-09-20T00:25:55;2.58;;;0.45;;
38972;SDS011;25333;50.762;4.470;2022-09-20T00:28:22;1.30;;;0.57;;
38972;SDS011;25333;50.762;4.470;2022-09-20T00:30:48;2.03;;;0.93;;
38972;SDS011;25333;50.762;4.470;2022-09-20T00:33:14;2.97;;;0.82;;
38972;SDS011;25333;50.762;4.470;2022-09-20T00:35:42;2.25;;;0.50;;
38972;SDS011;25333;50.762;4.470;2022-09-20T00:38:08;2.05;;;0.50;;
38972;SDS011;25333;50.762;4.470;2022-09-20T00:40:34;1.92;;;0.50;;
38972;SDS011;25333;50.762;4.470;2022-09-20T00:43:00;5.82;;;0.60;;
38972;SDS011;25333;50.762;4.470;2022-09-20T00:45:26;1.08;;;0.50;;
38972;SDS011;25333;50.762;4.470;2022-09-20T00:47:58;1.50;;;0.57;;
38972;SDS011;25333;50.762;4.470;2022-09-20T00:53:09;1.08;;;0.40;;
38972;SDS011;25333;50.762;4.470;2022-09-20T00:55:40;1.10;;;0.40;;
38972;SDS011;25333;50.762;4.470;2022-09-20T00:58:11;2.17;;;0.45;;
38972;SDS011;25333;50.762;4.470;2022-09-20T01:00:38;1.00;;;0.40;;
38972;SDS011;25333;50.762;4.470;2022-09-20T01:03:05;2.13;;;0.68;;
38972;SDS011;25333;50.762;4.470;2022-09-20T01:05:34;1.45;;;0.57;;
38972;SDS011;25333;50.762;4.470;2022-09-20T01:08:01;2.35;;;0.52;;
38972;SDS011;25333;50.762;4.470;2022-09-20T01:10:27;2.05;;;0.57;;
38972;SDS011;25333;50.762;4.470;2022-09-20T01:12:53;1.43;;;0.40;;
38972;SDS011;25333;50.762;4.470;2022-09-20T01:15:18;2.10;;;0.70;;
38972;SDS011;25333;50.762;4.470;2022-09-20T01:17:58;2.08;;;0.60;;
38972;SDS011;25333;50.762;4.470;2022-09-20T01:20:27;1.67;;;0.40;;
38972;SDS011;25333;50.762;4.470;2022-09-20T01:31:55;0.95;;;0.43;;
38972;SDS011;25333;50.762;4.470;2022-09-20T01:40:10;1.20;;;0.45;;
38972;SDS011;25333;50.762;4.470;2022-09-20T01:42:45;1.60;;;0.60;;
38972;SDS011;25333;50.762;4.470;2022-09-20T01:45:29;2.75;;;0.70;;
38972;SDS011;25333;50.762;4.470;2022-09-20T01:48:06;1.40;;;0.40;;
38972;SDS011;25333;50.762;4.470;2022-09-20T01:51:27;3.28;;;0.55;;
38972;SDS011;25333;50.762;4.470;2022-09-20T02:24:21;2.43;;;0.63;;
38972;SDS011;25333;50.762;4.470;2022-09-20T02:30:06;2.20;;;0.40;;
38972;SDS011;25333;50.762;4.470;2022-09-20T02:32:45;1.67;;;0.50;;
38972;SDS011;25333;50.762;4.470;2022-09-20T02:46:30;2.05;;;0.40;;
38972;SDS011;25333;50.762;4.470;2022-09-20T02:51:58;3.43;;;0.53;;
38972;SDS011;25333;50.762;4.470;2022-09-20T02:57:25;2.28;;;0.50;;
38972;SDS011;25333;50.762;4.470;2022-09-20T03:00:18;4.18;;;0.60;;
38972;SDS011;25333;50.762;4.470;2022-09-20T03:05:50;2.90;;;0.63;;
38972;SDS011;25333;50.762;4.470;2022-09-20T03:08:30;1.67;;;0.80;;
38972;SDS011;25333;50.762;4.470;2022-09-20T03:11:02;2.15;;;0.73;;
38972;SDS011;25333;50.762;4.470;2022-09-20T03:16:50;3.40;;;0.70;;
38972;SDS011;25333;50.762;4.470;2022-09-20T03:25:26;2.13;;;0.52;;
38972;SDS011;25333;50.762;4.470;2022-09-20T03:31:26;4.60;;;1.27;;
38972;SDS011;25333;50.762;4.470;2022-09-20T03:42:12;2.65;;;1.10;;
38972;SDS011;25333;50.762;4.470;2022-09-20T03:44:48;2.83;;;0.80;;
38972;SDS011;25333;50.762;4.470;2022-09-20T03:56:15;2.05;;;0.93;;
38972;SDS011;25333;50.762;4.470;2022-09-20T04:07:19;2.17;;;0.70;;
38972;SDS011;25333;50.762;4.470;2022-09-20T04:18:07;2.75;;;0.98;;
38972;SDS011;25333;50.762;4.470;2022-09-20T04:20:48;6.03;;;1.90;;
38972;SDS011;25333;50.762;4.470;2022-09-20T04:26:28;2.95;;;1.83;;
38972;SDS011;25333;50.762;4.470;2022-09-20T04:29:07;2.22;;;1.13;;
38972;SDS011;25333;50.762;4.470;2022-09-20T04:31:42;2.88;;;1.20;;
38972;SDS011;25333;50.762;4.470;2022-09-20T04:34:16;3.45;;;1.33;;
38972;SDS011;25333;50.762;4.470;2022-09-20T04:37:18;3.65;;;1.08;;
38972;SDS011;25333;50.762;4.470;2022-09-20T04:39:54;1.88;;;0.60;;
38972;SDS011;25333;50.762;4.470;2022-09-20T04:45:46;2.15;;;0.73;;
38972;SDS011;25333;50.762;4.470;2022-09-20T04:56:20;2.37;;;0.80;;
38972;SDS011;25333;50.762;4.470;2022-09-20T05:25:22;2.05;;;0.77;;
38972;SDS011;25333;50.762;4.470;2022-09-20T05:28:21;3.65;;;0.93;;
38972;SDS011;25333;50.762;4.470;2022-09-20T05:31:02;3.85;;;1.35;;
38972;SDS011;25333;50.762;4.470;2022-09-20T05:33:50;4.13;;;1.15;;
38972;SDS011;25333;50.762;4.470;2022-09-20T05:36:38;4.85;;;1.42;;
38972;SDS011;25333;50.762;4.470;2022-09-20T05:44:53;3.75;;;1.92;;
38972;SDS011;25333;50.762;4.470;2022-09-20T05:56:54;3.85;;;1.42;;
38972;SDS011;25333;50.762;4.470;2022-09-20T06:05:00;4.65;;;1.75;;
38972;SDS011;25333;50.762;4.470;2022-09-20T06:07:49;3.92;;;1.35;;
38972;SDS011;25333;50.762;4.470;2022-09-20T06:18:21;3.30;;;1.38;;
38972;SDS011;25333;50.762;4.470;2022-09-20T06:23:41;4.35;;;1.80;;
38972;SDS011;25333;50.762;4.470;2022-09-20T06:26:09;3.17;;;1.30;;
38972;SDS011;25333;50.762;4.470;2022-09-20T06:28:42;5.03;;;2.20;;
38972;SDS011;25333;50.762;4.470;2022-09-20T06:31:12;9.85;;;2.78;;
38972;SDS011;25333;50.762;4.470;2022-09-20T06:33:41;4.78;;;1.67;;
38972;SDS011;25333;50.762;4.470;2022-09-20T06:36:43;3.95;;;1.35;;
38972;SDS011;25333;50.762;4.470;2022-09-20T06:42:23;2.92;;;1.20;;
38972;SDS011;25333;50.762;4.470;2022-09-20T06:44:50;4.80;;;2.13;;
38972;SDS011;25333;50.762;4.470;2022-09-20T06:47:15;2.95;;;1.65;;
38972;SDS011;25333;50.762;4.470;2022-09-20T06:49:42;3.17;;;1.27;;
38972;SDS011;25333;50.762;4.470;2022-09-20T06:52:14;4.55;;;2.35;;
38972;SDS011;25333;50.762;4.470;2022-09-20T06:54:44;3.67;;;2.08;;
38972;SDS011;25333;50.762;4.470;2022-09-20T06:57:13;4.47;;;2.17;;
38972;SDS011;25333;50.762;4.470;2022-09-20T06:59:46;3.92;;;2.13;;
38972;SDS011;25333;50.762;4.470;2022-09-20T07:02:12;5.20;;;2.43;;
38972;SDS011;25333;50.762;4.470;2022-09-20T07:04:38;5.28;;;2.72;;
38972;SDS011;25333;50.762;4.470;2022-09-20T07:07:04;5.18;;;2.30;;
38972;SDS011;25333;50.762;4.470;2022-09-20T07:09:31;4.82;;;3.20;;
38972;SDS011;25333;50.762;4.470;2022-09-20T07:11:57;12.23;;;8.52;;
38972;SDS011;25333;50.762;4.470;2022-09-20T07:14:23;5.88;;;3.15;;
38972;SDS011;25333;50.762;4.470;2022-09-20T07:16:50;4.22;;;2.47;;
38972;SDS011;25333;50.762;4.470;2022-09-20T07:19:16;4.13;;;2.47;;
38972;SDS011;25333;50.762;4.470;2022-09-20T07:21:42;5.00;;;2.55;;
38972;SDS011;25333;50.762;4.470;2022-09-20T07:24:07;5.80;;;2.40;;
38972;SDS011;25333;50.762;4.470;2022-09-20T07:26:33;5.45;;;2.60;;
38972;SDS011;25333;50.762;4.470;2022-09-20T07:28:59;6.05;;;2.78;;
38972;SDS011;25333;50.762;4.470;2022-09-20T07:31:26;5.53;;;2.60;;
38972;SDS011;25333;50.762;4.470;2022-09-20T07:33:53;6.28;;;3.03;;
38972;SDS011;25333;50.762;4.470;2022-09-20T07:36:19;9.73;;;3.07;;
38972;SDS011;25333;50.762;4.470;2022-09-20T07:38:46;4.90;;;2.63;;
38972;SDS011;25333;50.762;4.470;2022-09-20T07:41:12;4.45;;;2.42;;
38972;SDS011;25333;50.762;4.470;2022-09-20T07:43:38;4.45;;;2.65;;
38972;SDS011;25333;50.762;4.470;2022-09-20T07:46:03;3.30;;;2.60;;
38972;SDS011;25333;50.762;4.470;2022-09-20T07:48:31;4.50;;;2.05;;
38972;SDS011;25333;50.762;4.470;2022-09-20T07:51:00;6.37;;;3.37;;
38972;SDS011;25333;50.762;4.470;2022-09-20T07:53:28;4.68;;;2.33;;
38972;SDS011;25333;50.762;4.470;2022-09-20T07:55:57;3.90;;;2.50;;
38972;SDS011;25333;50.762;4.470;2022-09-20T07:58:30;6.72;;;1.95;;
38972;SDS011;25333;50.762;4.470;2022-09-20T08:00:58;4.53;;;1.80;;
38972;SDS011;25333;50.762;4.470;2022-09-20T08:03:29;5.63;;;2.22;;
38972;SDS011;25333;50.762;4.470;2022-09-20T08:06:00;5.55;;;1.88;;
38972;SDS011;25333;50.762;4.470;2022-09-20T08:08:33;4.22;;;2.10;;
38972;SDS011;25333;50.762;4.470;2022-09-20T08:11:04;5.05;;;2.35;;
38972;SDS011;25333;50.762;4.470;2022-09-20T08:13:38;7.53;;;2.58;;
38972;SDS011;25333;50.762;4.470;2022-09-20T08:16:06;4.38;;;2.20;;
38972;SDS011;25333;50.762;4.470;2022-09-20T08:18:33;7.13;;;2.17;;
38972;SDS011;25333;50.762;4.470;2022-09-20T08:21:03;4.43;;;2.00;;
38972;SDS011;25333;50.762;4.470;2022-09-20T08:23:32;4.40;;;1.73;;
38972;SDS011;25333;50.762;4.470;2022-09-20T08:26:05;6.47;;;2.13;;
38972;SDS011;25333;50.762;4.470;2022-09-20T08:28:32;5.93;;;1.70;;
38972;SDS011;25333;50.762;4.470;2022-09-20T08:31:07;3.63;;;1.88;;
38972;SDS011;25333;50.762;4.470;2022-09-20T08:33:34;3.08;;;1.63;;
38972;SDS011;25333;50.762;4.470;2022-09-20T08:36:04;3.47;;;1.55;;
38972;SDS011;25333;50.762;4.470;2022-09-20T08:38:30;3.22;;;1.63;;
38972;SDS011;25333;50.762;4.470;2022-09-20T08:40:58;4.15;;;1.65;;
38972;SDS011;25333;50.762;4.470;2022-09-20T08:43:28;2.35;;;0.90;;
38972;SDS011;25333;50.762;4.470;2022-09-20T08:45:58;6.20;;;1.13;;
38972;SDS011;25333;50.762;4.470;2022-09-20T08:48:27;7.28;;;1.90;;
38972;SDS011;25333;50.762;4.470;2022-09-20T08:50:58;1.88;;;1.05;;
38972;SDS011;25333;50.762;4.470;2022-09-20T08:53:25;4.50;;;1.55;;
38972;SDS011;25333;50.762;4.470;2022-09-20T08:55:53;5.45;;;1.45;;
38972;SDS011;25333;50.762;4.470;2022-09-20T08:58:21;2.40;;;1.10;;
38972;SDS011;25333;50.762;4.470;2022-09-20T09:00:48;1.75;;;0.57;;
38972;SDS011;25333;50.762;4.470;2022-09-20T09:03:14;2.60;;;1.00;;
38972;SDS011;25333;50.762;4.470;2022-09-20T09:08:16;3.88;;;1.58;;
38972;SDS011;25333;50.762;4.470;2022-09-20T09:10:50;4.28;;;1.58;;
38972;SDS011;25333;50.762;4.470;2022-09-20T09:13:31;2.88;;;1.20;;
38972;SDS011;25333;50.762;4.470;2022-09-20T09:16:17;6.95;;;1.63;;
38972;SDS011;25333;50.762;4.470;2022-09-20T09:18:44;5.78;;;1.65;;
38972;SDS011;25333;50.762;4.470;2022-09-20T09:21:31;4.03;;;1.63;;
38972;SDS011;25333;50.762;4.470;2022-09-20T09:26:33;5.28;;;1.58;;
38972;SDS011;25333;50.762;4.470;2022-09-20T09:29:22;2.58;;;1.30;;
38972;SDS011;25333;50.762;4.470;2022-09-20T09:31:48;4.80;;;1.60;;
38972;SDS011;25333;50.762;4.470;2022-09-20T09:34:37;3.63;;;1.60;;
38972;SDS011;25333;50.762;4.470;2022-09-20T09:37:04;4.43;;;1.70;;
38972;SDS011;25333;50.762;4.470;2022-09-20T09:39:30;5.27;;;1.57;;
38972;SDS011;25333;50.762;4.470;2022-09-20T09:42:17;3.80;;;1.50;;
38972;SDS011;25333;50.762;4.470;2022-09-20T09:44:44;3.63;;;1.50;;
38972;SDS011;25333;50.762;4.470;2022-09-20T09:47:26;3.05;;;1.08;;
38972;SDS011;25333;50.762;4.470;2022-09-20T09:49:56;4.80;;;1.45;;
38972;SDS011;25333;50.762;4.470;2022-09-20T09:52:23;4.93;;;1.70;;
38972;SDS011;25333;50.762;4.470;2022-09-20T09:54:54;4.07;;;1.30;;
38972;SDS011;25333;50.762;4.470;2022-09-20T10:00:30;4.13;;;1.13;;
38972;SDS011;25333;50.762;4.470;2022-09-20T10:08:29;5.67;;;1.90;;
38972;SDS011;25333;50.762;4.470;2022-09-20T10:14:00;4.28;;;1.63;;
38972;SDS011;25333;50.762;4.470;2022-09-20T10:17:01;3.72;;;1.48;;
38972;SDS011;25333;50.762;4.470;2022-09-20T10:27:59;3.85;;;1.50;;
38972;SDS011;25333;50.762;4.470;2022-09-20T10:33:43;3.33;;;1.17;;
38972;SDS011;25333;50.762;4.470;2022-09-20T10:38:48;2.47;;;0.80;;
38972;SDS011;25333;50.762;4.470;2022-09-20T10:45:05;7.40;;;1.05;;
38972;SDS011;25333;50.762;4.470;2022-09-20T10:58:46;2.50;;;0.68;;
38972;SDS011;25333;50.762;4.470;2022-09-20T11:04:39;2.90;;;0.68;;
38972;SDS011;25333;50.762;4.470;2022-09-20T11:09:34;2.80;;;0.80;;
38972;SDS011;25333;50.762;4.470;2022-09-20T11:14:41;2.55;;;0.65;;
38972;SDS011;25333;50.762;4.470;2022-09-20T11:22:26;1.80;;;0.40;;
38972;SDS011;25333;50.762;4.470;2022-09-20T11:25:17;2.97;;;0.77;;
38972;SDS011;25333;50.762;4.470;2022-09-20T11:30:44;4.00;;;0.70;;
38972;SDS011;25333;50.762;4.470;2022-09-20T11:35:55;2.53;;;0.40;;
38972;SDS011;25333;50.762;4.470;2022-09-20T11:38:37;2.95;;;0.60;;
38972;SDS011;25333;50.762;4.470;2022-09-20T11:41:15;2.05;;;0.68;;
38972;SDS011;25333;50.762;4.470;2022-09-20T11:43:46;3.45;;;0.77;;
38972;SDS011;25333;50.762;4.470;2022-09-20T11:46:23;2.83;;;0.50;;
38972;SDS011;25333;50.762;4.470;2022-09-20T11:48:55;2.57;;;0.77;;
38972;SDS011;25333;50.762;4.470;2022-09-20T11:57:04;4.28;;;0.80;;
38972;SDS011;25333;50.762;4.470;2022-09-20T11:59:36;1.55;;;0.65;;
38972;SDS011;25333;50.762;4.470;2022-09-20T12:04:56;1.75;;;0.73;;
38972;SDS011;25333;50.762;4.470;2022-09-20T12:07:26;1.35;;;0.57;;
38972;SDS011;25333;50.762;4.470;2022-09-20T12:09:58;2.10;;;0.47;;
38972;SDS011;25333;50.762;4.470;2022-09-20T12:12:29;1.90;;;0.57;;
38972;SDS011;25333;50.762;4.470;2022-09-20T12:15:03;2.10;;;0.63;;
38972;SDS011;25333;50.762;4.470;2022-09-20T12:18:35;4.60;;;0.60;;
38972;SDS011;25333;50.762;4.470;2022-09-20T12:20:55;3.42;;;0.73;;
38972;SDS011;25333;50.762;4.470;2022-09-20T12:33:57;2.85;;;0.47;;
38972;SDS011;25333;50.762;4.470;2022-09-20T12:36:34;5.15;;;0.98;;
38972;SDS011;25333;50.762;4.470;2022-09-20T12:39:13;2.22;;;0.70;;
38972;SDS011;25333;50.762;4.470;2022-09-20T12:44:21;3.00;;;0.50;;
38972;SDS011;25333;50.762;4.470;2022-09-20T12:49:36;3.60;;;0.80;;
38972;SDS011;25333;50.762;4.470;2022-09-20T12:56:15;2.00;;;0.68;;
38972;SDS011;25333;50.762;4.470;2022-09-20T13:03:30;2.20;;;0.87;;
38972;SDS011;25333;50.762;4.470;2022-09-20T13:08:53;3.17;;;1.30;;
38972;SDS011;25333;50.762;4.470;2022-09-20T13:11:34;2.95;;;1.02;;
38972;SDS011;25333;50.762;4.470;2022-09-20T13:19:28;2.35;;;0.80;;
38972;SDS011;25333;50.762;4.470;2022-09-20T13:22:04;2.30;;;0.60;;
38972;SDS011;25333;50.762;4.470;2022-09-20T13:24:39;2.33;;;0.57;;
38972;SDS011;25333;50.762;4.470;2022-09-20T13:27:17;2.47;;;0.90;;
38972;SDS011;25333;50.762;4.470;2022-09-20T13:29:49;3.08;;;0.98;;
38972;SDS011;25333;50.762;4.470;2022-09-20T13:32:21;2.97;;;0.75;;
38972;SDS011;25333;50.762;4.470;2022-09-20T13:37:52;5.00;;;1.30;;
38972;SDS011;25333;50.762;4.470;2022-09-20T13:42:57;2.78;;;0.77;;
38972;SDS011;25333;50.762;4.470;2022-09-20T13:45:26;2.05;;;0.90;;
38972;SDS011;25333;50.762;4.470;2022-09-20T13:47:53;2.72;;;1.20;;
38972;SDS011;25333;50.762;4.470;2022-09-20T13:50:30;3.80;;;0.90;;
38972;SDS011;25333;50.762;4.470;2022-09-20T13:52:58;1.40;;;0.82;;
38972;SDS011;25333;50.762;4.470;2022-09-20T13:55:27;2.33;;;0.80;;
38972;SDS011;25333;50.762;4.470;2022-09-20T13:58:02;3.35;;;0.73;;
38972;SDS011;25333;50.762;4.470;2022-09-20T14:00:31;4.07;;;1.00;;
38972;SDS011;25333;50.762;4.470;2022-09-20T14:02:59;3.75;;;0.73;;
38972;SDS011;25333;50.762;4.470;2022-09-20T14:05:27;1.95;;;0.60;;
38972;SDS011;25333;50.762;4.470;2022-09-20T14:07:54;3.45;;;1.10;;
38972;SDS011;25333;50.762;4.470;2022-09-20T14:10:35;4.15;;;1.20;;
38972;SDS011;25333;50.762;4.470;2022-09-20T14:13:05;2.35;;;0.93;;
38972;SDS011;25333;50.762;4.470;2022-09-20T14:15:36;3.27;;;1.20;;
38972;SDS011;25333;50.762;4.470;2022-09-20T14:18:06;2.22;;;1.00;;
38972;SDS011;25333;50.762;4.470;2022-09-20T14:20:36;1.63;;;0.50;;
38972;SDS011;25333;50.762;4.470;2022-09-20T14:23:02;2.85;;;0.52;;
38972;SDS011;25333;50.762;4.470;2022-09-20T14:25:28;4.60;;;0.83;;
38972;SDS011;25333;50.762;4.470;2022-09-20T14:28:06;1.95;;;0.70;;
38972;SDS011;25333;50.762;4.470;2022-09-20T14:30:42;2.08;;;0.55;;
38972;SDS011;25333;50.762;4.470;2022-09-20T14:33:14;2.80;;;0.50;;
38972;SDS011;25333;50.762;4.470;2022-09-20T14:35:48;2.45;;;0.50;;
38972;SDS011;25333;50.762;4.470;2022-09-20T14:38:15;2.33;;;0.47;;
38972;SDS011;25333;50.762;4.470;2022-09-20T14:40:46;1.83;;;0.20;;
38972;SDS011;25333;50.762;4.470;2022-09-20T14:43:20;4.72;;;0.55;;
38972;SDS011;25333;50.762;4.470;2022-09-20T14:45:50;1.45;;;0.43;;
38972;SDS011;25333;50.762;4.470;2022-09-20T14:50:45;1.58;;;0.43;;
38972;SDS011;25333;50.762;4.470;2022-09-20T14:53:40;3.75;;;0.70;;
38972;SDS011;25333;50.762;4.470;2022-09-20T14:56:11;3.20;;;0.53;;
38972;SDS011;25333;50.762;4.470;2022-09-20T15:01:31;3.80;;;0.55;;
38972;SDS011;25333;50.762;4.470;2022-09-20T15:03:57;0.98;;;0.38;;
38972;SDS011;25333;50.762;4.470;2022-09-20T15:06:23;1.00;;;0.37;;
38972;SDS011;25333;50.762;4.470;2022-09-20T15:08:49;2.13;;;0.50;;
38972;SDS011;25333;50.762;4.470;2022-09-20T15:11:15;2.90;;;0.40;;
38972;SDS011;25333;50.762;4.470;2022-09-20T15:13:42;1.60;;;0.50;;
38972;SDS011;25333;50.762;4.470;2022-09-20T15:16:09;3.35;;;0.40;;
38972;SDS011;25333;50.762;4.470;2022-09-20T15:18:38;5.43;;;0.47;;
38972;SDS011;25333;50.762;4.470;2022-09-20T15:21:05;1.60;;;0.30;;
38972;SDS011;25333;50.762;4.470;2022-09-20T15:23:31;1.90;;;0.50;;
38972;SDS011;25333;50.762;4.470;2022-09-20T15:25:57;2.50;;;0.50;;
38972;SDS011;25333;50.762;4.470;2022-09-20T15:28:24;5.85;;;0.98;;
38972;SDS011;25333;50.762;4.470;2022-09-20T15:30:50;3.10;;;0.30;;
38972;SDS011;25333;50.762;4.470;2022-09-20T15:33:17;2.53;;;0.30;;
38972;SDS011;25333;50.762;4.470;2022-09-20T15:35:44;2.97;;;0.60;;
38972;SDS011;25333;50.762;4.470;2022-09-20T15:38:10;0.68;;;0.28;;
38972;SDS011;25333;50.762;4.470;2022-09-20T15:40:40;1.98;;;0.35;;
38972;SDS011;25333;50.762;4.470;2022-09-20T15:43:07;1.43;;;0.40;;
38972;SDS011;25333;50.762;4.470;2022-09-20T15:45:35;1.30;;;0.30;;
38972;SDS011;25333;50.762;4.470;2022-09-20T15:48:19;2.80;;;0.30;;
38972;SDS011;25333;50.762;4.470;2022-09-20T15:51:00;1.63;;;0.40;;
38972;SDS011;25333;50.762;4.470;2022-09-20T15:53:31;3.00;;;0.40;;
38972;SDS011;25333;50.762;4.470;2022-09-20T15:56:02;2.75;;;0.50;;
38972;SDS011;25333;50.762;4.470;2022-09-20T15:58:37;2.17;;;0.70;;
38972;SDS011;25333;50.762;4.470;2022-09-20T16:01:06;2.33;;;0.40;;
38972;SDS011;25333;50.762;4.470;2022-09-20T16:03:33;2.33;;;0.60;;
38972;SDS011;25333;50.762;4.470;2022-09-20T16:06:00;3.83;;;0.40;;
38972;SDS011;25333;50.762;4.470;2022-09-20T16:08:33;1.00;;;0.50;;
38972;SDS011;25333;50.762;4.470;2022-09-20T16:11:00;1.17;;;0.28;;
38972;SDS011;25333;50.762;4.470;2022-09-20T16:13:26;2.30;;;0.60;;
38972;SDS011;25333;50.762;4.470;2022-09-20T16:15:53;2.50;;;0.40;;
38972;SDS011;25333;50.762;4.470;2022-09-20T16:18:19;6.65;;;0.77;;
38972;SDS011;25333;50.762;4.470;2022-09-20T16:21:11;2.60;;;0.45;;
38972;SDS011;25333;50.762;4.470;2022-09-20T16:23:39;1.52;;;0.40;;
38972;SDS011;25333;50.762;4.470;2022-09-20T16:26:06;1.88;;;0.35;;
38972;SDS011;25333;50.762;4.470;2022-09-20T16:28:37;2.38;;;0.47;;
38972;SDS011;25333;50.762;4.470;2022-09-20T16:31:41;5.10;;;0.40;;
38972;SDS011;25333;50.762;4.470;2022-09-20T16:36:57;1.20;;;0.30;;
38972;SDS011;25333;50.762;4.470;2022-09-20T16:39:27;3.10;;;0.40;;
38972;SDS011;25333;50.762;4.470;2022-09-20T16:41:55;3.75;;;0.60;;
38972;SDS011;25333;50.762;4.470;2022-09-20T16:44:28;1.35;;;0.38;;
38972;SDS011;25333;50.762;4.470;2022-09-20T16:46:58;1.60;;;0.40;;
38972;SDS011;25333;50.762;4.470;2022-09-20T16:49:24;2.38;;;0.40;;
38972;SDS011;25333;50.762;4.470;2022-09-20T16:51:53;1.30;;;0.50;;
38972;SDS011;25333;50.762;4.470;2022-09-20T16:54:19;3.78;;;0.80;;
38972;SDS011;25333;50.762;4.470;2022-09-20T16:56:46;2.33;;;0.60;;
38972;SDS011;25333;50.762;4.470;2022-09-20T16:59:13;2.28;;;0.50;;
38972;SDS011;25333;50.762;4.470;2022-09-20T17:01:41;1.70;;;0.75;;
38972;SDS011;25333;50.762;4.470;2022-09-20T17:04:08;2.70;;;0.95;;
38972;SDS011;25333;50.762;4.470;2022-09-20T17:06:35;1.42;;;0.55;;
38972;SDS011;25333;50.762;4.470;2022-09-20T17:09:02;2.77;;;0.70;;
38972;SDS011;25333;50.762;4.470;2022-09-20T17:11:30;4.03;;;0.93;;
38972;SDS011;25333;50.762;4.470;2022-09-20T17:13:59;2.80;;;0.98;;
38972;SDS011;25333;50.762;4.470;2022-09-20T17:16:29;2.17;;;0.52;;
38972;SDS011;25333;50.762;4.470;2022-09-20T17:19:00;2.10;;;0.63;;
38972;SDS011;25333;50.762;4.470;2022-09-20T17:21:31;2.30;;;0.70;;
38972;SDS011;25333;50.762;4.470;2022-09-20T17:23:58;1.90;;;0.55;;
38972;SDS011;25333;50.762;4.470;2022-09-20T17:26:28;2.53;;;0.70;;
38972;SDS011;25333;50.762;4.470;2022-09-20T17:28:58;2.42;;;0.60;;
38972;SDS011;25333;50.762;4.470;2022-09-20T17:31:26;2.80;;;0.75;;
38972;SDS011;25333;50.762;4.470;2022-09-20T17:33:56;2.53;;;0.75;;
38972;SDS011;25333;50.762;4.470;2022-09-20T17:36:24;2.88;;;0.93;;
38972;SDS011;25333;50.762;4.470;2022-09-20T17:38:52;3.88;;;0.60;;
38972;SDS011;25333;50.762;4.470;2022-09-20T17:41:19;2.25;;;0.68;;
38972;SDS011;25333;50.762;4.470;2022-09-20T17:43:45;2.80;;;0.77;;
38972;SDS011;25333;50.762;4.470;2022-09-20T17:46:15;2.78;;;0.85;;
38972;SDS011;25333;50.762;4.470;2022-09-20T17:48:52;3.30;;;0.95;;
38972;SDS011;25333;50.762;4.470;2022-09-20T17:51:19;3.67;;;0.80;;
38972;SDS011;25333;50.762;4.470;2022-09-20T17:53:48;3.10;;;0.63;;
38972;SDS011;25333;50.762;4.470;2022-09-20T17:56:14;7.23;;;1.00;;
38972;SDS011;25333;50.762;4.470;2022-09-20T17:58:40;5.50;;;1.00;;
38972;SDS011;25333;50.762;4.470;2022-09-20T18:01:07;4.00;;;1.58;;
38972;SDS011;25333;50.762;4.470;2022-09-20T18:03:39;6.13;;;2.00;;
38972;SDS011;25333;50.762;4.470;2022-09-20T18:06:19;5.43;;;2.50;;
38972;SDS011;25333;50.762;4.470;2022-09-20T18:09:15;3.28;;;1.65;;
38972;SDS011;25333;50.762;4.470;2022-09-20T18:11:47;2.05;;;1.15;;
38972;SDS011;25333;50.762;4.470;2022-09-20T18:14:15;2.25;;;0.90;;
38972;SDS011;25333;50.762;4.470;2022-09-20T18:16:42;1.92;;;1.10;;
38972;SDS011;25333;50.762;4.470;2022-09-20T18:19:08;1.90;;;1.10;;
38972;SDS011;25333;50.762;4.470;2022-09-20T18:21:35;3.10;;;1.00;;
38972;SDS011;25333;50.762;4.470;2022-09-20T18:24:05;3.03;;;1.30;;
38972;SDS011;25333;50.762;4.470;2022-09-20T18:26:32;3.65;;;2.13;;
38972;SDS011;25333;50.762;4.470;2022-09-20T18:28:59;4.70;;;2.70;;
38972;SDS011;25333;50.762;4.470;2022-09-20T18:31:42;5.35;;;3.40;;
38972;SDS011;25333;50.762;4.470;2022-09-20T18:34:11;3.63;;;2.67;;
38972;SDS011;25333;50.762;4.470;2022-09-20T18:36:42;5.40;;;3.20;;
38972;SDS011;25333;50.762;4.470;2022-09-20T18:39:09;4.00;;;3.17;;
38972;SDS011;25333;50.762;4.470;2022-09-20T18:41:36;5.30;;;3.40;;
38972;SDS011;25333;50.762;4.470;2022-09-20T18:44:05;5.32;;;3.05;;
38972;SDS011;25333;50.762;4.470;2022-09-20T18:46:31;5.65;;;3.17;;
38972;SDS011;25333;50.762;4.470;2022-09-20T18:49:03;4.28;;;3.08;;
38972;SDS011;25333;50.762;4.470;2022-09-20T18:51:30;4.15;;;3.20;;
38972;SDS011;25333;50.762;4.470;2022-09-20T18:53:56;5.88;;;3.47;;
38972;SDS011;25333;50.762;4.470;2022-09-20T18:56:29;5.80;;;3.90;;
38972;SDS011;25333;50.762;4.470;2022-09-20T18:59:14;5.53;;;4.57;;
38972;SDS011;25333;50.762;4.470;2022-09-20T19:01:47;7.38;;;4.38;;
38972;SDS011;25333;50.762;4.470;2022-09-20T19:12:09;8.68;;;4.88;;
38972;SDS011;25333;50.762;4.470;2022-09-20T19:17:31;8.02;;;5.85;;
38972;SDS011;25333;50.762;4.470;2022-09-20T19:20:20;8.40;;;5.63;;
38972;SDS011;25333;50.762;4.470;2022-09-20T19:25:51;9.05;;;5.95;;
38972;SDS011;25333;50.762;4.470;2022-09-20T19:28:39;7.65;;;4.88;;
38972;SDS011;25333;50.762;4.470;2022-09-20T19:31:04;10.10;;;5.53;;
38972;SDS011;25333;50.762;4.470;2022-09-20T19:33:35;9.05;;;5.85;;
38972;SDS011;25333;50.762;4.470;2022-09-20T19:36:01;10.97;;;5.43;;
38972;SDS011;25333;50.762;4.470;2022-09-20T19:49:21;8.93;;;5.32;;
38972;SDS011;25333;50.762;4.470;2022-09-20T19:52:00;7.93;;;5.20;;
38972;SDS011;25333;50.762;4.470;2022-09-20T19:54:27;10.65;;;5.88;;
38972;SDS011;25333;50.762;4.470;2022-09-20T19:56:54;9.25;;;6.03;;
38972;SDS011;25333;50.762;4.470;2022-09-20T19:59:23;10.10;;;6.13;;
38972;SDS011;25333;50.762;4.470;2022-09-20T20:01:50;10.57;;;6.50;;
38972;SDS011;25333;50.762;4.470;2022-09-20T20:04:17;7.97;;;5.70;;
38972;SDS011;25333;50.762;4.470;2022-09-20T20:07:02;8.88;;;5.88;;
38972;SDS011;25333;50.762;4.470;2022-09-20T20:12:15;7.40;;;4.73;;
38972;SDS011;25333;50.762;4.470;2022-09-20T20:20:19;7.38;;;4.95;;
38972;SDS011;25333;50.762;4.470;2022-09-20T20:23:02;8.65;;;4.60;;
38972;SDS011;25333;50.762;4.470;2022-09-20T20:25:34;6.80;;;4.35;;
38972;SDS011;25333;50.762;4.470;2022-09-20T20:28:38;7.82;;;4.72;;
38972;SDS011;25333;50.762;4.470;2022-09-20T20:31:04;7.37;;;4.20;;
38972;SDS011;25333;50.762;4.470;2022-09-20T20:33:31;7.40;;;4.47;;
38972;SDS011;25333;50.762;4.470;2022-09-20T20:35:58;5.95;;;4.38;;
38972;SDS011;25333;50.762;4.470;2022-09-20T20:38:25;7.30;;;4.60;;
38972;SDS011;25333;50.762;4.470;2022-09-20T20:40:58;7.68;;;4.70;;
38972;SDS011;25333;50.762;4.470;2022-09-20T20:43:28;8.80;;;5.28;;
38972;SDS011;25333;50.762;4.470;2022-09-20T20:45:58;7.75;;;4.60;;
38972;SDS011;25333;50.762;4.470;2022-09-20T20:48:24;6.93;;;3.97;;
38972;SDS011;25333;50.762;4.470;2022-09-20T20:50:57;4.78;;;3.83;;
38972;SDS011;25333;50.762;4.470;2022-09-20T20:53:33;6.90;;;4.18;;
38972;SDS011;25333;50.762;4.470;2022-09-20T20:56:05;6.22;;;3.83;;
38972;SDS011;25333;50.762;4.470;2022-09-20T20:58:33;5.72;;;4.05;;
38972;SDS011;25333;50.762;4.470;2022-09-20T21:01:07;4.53;;;4.00;;